createdAt,value
2022-08-17T00:00:34.460Z,97845.41
2022-08-17T00:01:51.316Z,97838.09
2022-08-17T00:03:02.758Z,97849.25
2022-08-17T00:04:09.280Z,97847.22
2022-08-17T00:05:15.706Z,97843.75
2022-08-17T00:06:21.681Z,97853.69
2022-08-17T00:07:23.173Z,97856.66
2022-08-17T00:08:33.228Z,97848.66
2022-08-17T00:09:34.678Z,97849.41
2022-08-17T00:10:37.224Z,97847.47
2022-08-17T00:11:41.722Z,97850.88
2022-08-17T00:12:44.767Z,97854.13
2022-08-17T00:13:49.503Z,97853.06
2022-08-17T00:14:50.981Z,97853.47
2022-08-17T00:15:56.029Z,97854.50
2022-08-17T00:16:58.839Z,97850.66
2022-08-17T00:18:00.367Z,97848.41
2022-08-17T00:19:07.289Z,97849.59
2022-08-17T00:20:12.038Z,97852.25
2022-08-17T00:21:16.371Z,97850.78
2022-08-17T00:22:32.714Z,97848.56
2022-08-17T00:23:37.100Z,97848.78
2022-08-17T00:24:38.650Z,97850.50
2022-08-17T00:25:42.155Z,97851.69
2022-08-17T00:26:45.012Z,97843.75
2022-08-17T00:27:46.987Z,97840.31
2022-08-17T00:28:48.586Z,97849.00
2022-08-17T00:29:53.351Z,97846.41
2022-08-17T00:30:55.583Z,97848.03
2022-08-17T00:31:57.219Z,97848.03
2022-08-17T00:33:12.397Z,97850.13
2022-08-17T00:34:18.944Z,97848.31
2022-08-17T00:35:23.707Z,97842.84
2022-08-17T00:36:25.625Z,97851.28
2022-08-17T00:37:27.312Z,97844.59
2022-08-17T00:38:29.589Z,97847.03
2022-08-17T00:39:31.557Z,97843.88
2022-08-17T00:40:44.312Z,97838.59
2022-08-17T00:41:46.263Z,97844.38
2022-08-17T00:42:49.299Z,97849.34
2022-08-17T00:43:54.094Z,97851.94
2022-08-17T00:44:55.575Z,97852.34
2022-08-17T00:45:57.960Z,97850.31
2022-08-17T00:46:59.451Z,97840.63
2022-08-17T00:48:00.890Z,97847.25
2022-08-17T00:49:03.975Z,97847.00
2022-08-17T00:50:09.338Z,97846.09
2022-08-17T00:51:35.614Z,97844.91
2022-08-17T00:52:43.599Z,97844.75
2022-08-17T00:53:54.807Z,97847.88
2022-08-17T00:54:56.824Z,97831.91
2022-08-17T00:56:01.697Z,97835.16
2022-08-17T00:57:11.136Z,97824.91
2022-08-17T00:58:12.790Z,97820.41
2022-08-17T00:59:17.777Z,97829.41
2022-08-17T01:00:28.129Z,97826.19
2022-08-17T01:01:31.132Z,97832.09
2022-08-17T01:02:42.052Z,97837.44
2022-08-17T01:03:44.361Z,97837.50
2022-08-17T01:04:50.149Z,97840.44
2022-08-17T01:05:54.952Z,97836.50
2022-08-17T01:06:58.738Z,97837.34
2022-08-17T01:08:02.485Z,97829.44
2022-08-17T01:09:04.864Z,97837.50
2022-08-17T01:10:59.778Z,97834.09
2022-08-17T01:11:33.556Z,97837.19
2022-08-17T01:12:37.021Z,97837.75
2022-08-17T01:13:41.856Z,97840.75
2022-08-17T01:14:43.970Z,97835.75
2022-08-17T01:15:58.166Z,97836.25
2022-08-17T01:17:00.721Z,97843.16
2022-08-17T01:18:04.426Z,97850.84
2022-08-17T01:19:14.934Z,97850.50
2022-08-17T01:20:16.912Z,97841.63
2022-08-17T01:21:40.526Z,97844.97
2022-08-17T01:22:42.062Z,97846.66
2022-08-17T01:23:43.556Z,97843.50
2022-08-17T01:24:53.646Z,97843.22
2022-08-17T01:25:57.895Z,97834.25
2022-08-17T01:26:59.989Z,97832.31
2022-08-17T01:28:02.608Z,97836.16
2022-08-17T01:29:06.302Z,97836.97
2022-08-17T01:30:57.297Z,97835.59
2022-08-17T01:31:45.504Z,97833.75
2022-08-17T01:32:47.030Z,97834.16
2022-08-17T01:33:48.607Z,97829.66
2022-08-17T01:34:50.932Z,97825.63
2022-08-17T01:35:52.622Z,97829.66
2022-08-17T01:36:58.149Z,97829.69
2022-08-17T01:37:59.631Z,97832.31
2022-08-17T01:39:01.200Z,97830.72
2022-08-17T01:40:21.679Z,97828.56
2022-08-17T01:41:24.335Z,97833.56
2022-08-17T01:42:33.657Z,97824.47
2022-08-17T01:43:42.177Z,97824.88
2022-08-17T01:44:44.394Z,97820.88
2022-08-17T01:45:48.470Z,97824.22
2022-08-17T01:47:05.402Z,97824.91
2022-08-17T01:48:06.914Z,97837.81
2022-08-17T01:49:10.904Z,97838.03
2022-08-17T01:50:22.715Z,97830.94
2022-08-17T01:51:33.126Z,97833.53
2022-08-17T01:52:35.563Z,97833.19
2022-08-17T01:53:40.682Z,97833.19
2022-08-17T01:54:45.468Z,97833.88
2022-08-17T01:55:55.491Z,97834.22
2022-08-17T01:56:57.033Z,97836.03
2022-08-17T01:57:58.623Z,97833.72
2022-08-17T01:59:00.555Z,97837.22
2022-08-17T02:00:03.508Z,97832.63
2022-08-17T02:01:07.039Z,97842.56
2022-08-17T02:02:08.763Z,97835.03
2022-08-17T02:03:10.572Z,97840.63
2022-08-17T02:04:12.680Z,97834.22
2022-08-17T02:05:14.352Z,97837.91
2022-08-17T02:06:27.924Z,97834.88
2022-08-17T02:07:29.840Z,97831.47
2022-08-17T02:08:38.689Z,97832.31
2022-08-17T02:09:42.126Z,97833.31
2022-08-17T02:10:46.840Z,97832.78
2022-08-17T02:11:48.518Z,97830.59
2022-08-17T02:12:51.981Z,97829.50
2022-08-17T02:13:55.059Z,97829.94
2022-08-17T02:15:09.626Z,97831.19
2022-08-17T02:16:11.369Z,97821.81
2022-08-17T02:17:13.221Z,97824.38
2022-08-17T02:18:15.638Z,97825.91
2022-08-17T02:19:17.849Z,97823.69
2022-08-17T02:20:41.778Z,97823.16
2022-08-17T02:21:43.581Z,97826.78
2022-08-17T02:22:47.791Z,97827.53
2022-08-17T02:23:50.157Z,97823.69
2022-08-17T02:25:00.522Z,97822.41
2022-08-17T02:26:03.947Z,97825.28
2022-08-17T02:27:06.118Z,97821.81
2022-08-17T02:28:07.587Z,97817.97
2022-08-17T02:29:09.115Z,97820.69
2022-08-17T02:30:59.741Z,97819.53
2022-08-17T02:31:35.607Z,97812.97
2022-08-17T02:32:37.849Z,97819.53
2022-08-17T02:33:42.623Z,97808.47
2022-08-17T02:34:45.029Z,97819.19
2022-08-17T02:35:46.582Z,97814.28
2022-08-17T02:36:48.614Z,97809.28
2022-08-17T02:37:51.917Z,97813.88
2022-08-17T02:38:58.613Z,97815.72
2022-08-17T02:40:00.390Z,97811.94
2022-08-17T02:41:02.110Z,97812.50
2022-08-17T02:42:04.382Z,97808.66
2022-08-17T02:43:07.498Z,97811.22
2022-08-17T02:44:08.997Z,97799.84
2022-08-17T02:45:20.556Z,97806.34
2022-08-17T02:46:22.631Z,97807.78
2022-08-17T02:47:24.905Z,97799.44
2022-08-17T02:48:30.948Z,97798.00
2022-08-17T02:49:33.288Z,97797.69
2022-08-17T02:50:34.806Z,97798.09
2022-08-17T02:51:36.723Z,97800.75
2022-08-17T02:52:42.848Z,97791.72
2022-08-17T02:53:45.444Z,97794.06
2022-08-17T02:54:47.213Z,97798.84
2022-08-17T02:55:48.716Z,97797.19
2022-08-17T02:56:50.596Z,97792.19
2022-08-17T02:57:53.115Z,97790.22
2022-08-17T02:58:54.564Z,97791.72
2022-08-17T02:59:56.064Z,97790.22
2022-08-17T03:00:57.576Z,97786.31
2022-08-17T03:02:00.614Z,97793.84
2022-08-17T03:03:04.383Z,97784.41
2022-08-17T03:04:05.972Z,97790.28
2022-08-17T03:05:09.120Z,97788.09
2022-08-17T03:06:11.156Z,97790.13
2022-08-17T03:07:12.778Z,97793.81
2022-08-17T03:08:15.514Z,97795.47
2022-08-17T03:09:17.004Z,97794.72
2022-08-17T03:10:20.054Z,97789.94
2022-08-17T03:11:22.367Z,97793.03
2022-08-17T03:12:23.862Z,97793.50
2022-08-17T03:13:25.486Z,97790.84
2022-08-17T03:14:27.063Z,97797.81
2022-08-17T03:15:31.562Z,97796.44
2022-08-17T03:16:33.500Z,97798.44
2022-08-17T03:17:36.189Z,97796.72
2022-08-17T03:18:37.802Z,97794.16
2022-08-17T03:19:41.544Z,97798.63
2022-08-17T03:20:44.705Z,97793.31
2022-08-17T03:21:46.162Z,97792.13
2022-08-17T03:23:02.935Z,97789.06
2022-08-17T03:24:08.949Z,97791.91
2022-08-17T03:25:13.350Z,97787.75
2022-08-17T03:26:21.284Z,97790.81
2022-08-17T03:27:22.942Z,97787.41
2022-08-17T03:28:24.997Z,97792.81
2022-08-17T03:29:26.504Z,97799.22
2022-08-17T03:30:28.954Z,97793.09
2022-08-17T03:31:31.773Z,97796.06
2022-08-17T03:32:38.878Z,97796.88
2022-08-17T03:33:40.468Z,97795.25
2022-08-17T03:34:42.702Z,97788.88
2022-08-17T03:35:44.778Z,97790.41
2022-08-17T03:36:46.583Z,97786.84
2022-08-17T03:37:48.427Z,97789.31
2022-08-17T03:39:01.502Z,97795.38
2022-08-17T03:40:04.480Z,97793.13
2022-08-17T03:41:07.004Z,97793.13
2022-08-17T03:42:32.369Z,97791.47
2022-08-17T03:43:34.810Z,97794.84
2022-08-17T03:44:36.509Z,97796.16
2022-08-17T03:45:57.684Z,97804.81
2022-08-17T03:47:17.839Z,97803.63
2022-08-17T03:48:37.683Z,97802.19
2022-08-17T03:49:57.600Z,97803.34
2022-08-17T03:51:18.480Z,97799.81
2022-08-17T03:52:38.603Z,97800.47
2022-08-17T03:54:13.638Z,97797.06
2022-08-17T03:55:36.015Z,97803.16
2022-08-17T03:56:44.722Z,97800.47
2022-08-17T03:57:46.143Z,97786.38
2022-08-17T03:58:48.828Z,97801.59
2022-08-17T03:59:51.475Z,97799.34
2022-08-17T04:00:55.012Z,97798.94
2022-08-17T04:01:59.372Z,97794.06
2022-08-17T04:03:01.025Z,97798.25
2022-08-17T04:04:02.618Z,97800.84
2022-08-17T04:05:04.443Z,97797.63
2022-08-17T04:06:06.561Z,97800.72
2022-08-17T04:07:08.459Z,97804.97
2022-08-17T04:08:11.018Z,97799.34
2022-08-17T04:09:12.809Z,97805.25
2022-08-17T04:10:14.318Z,97808.72
2022-08-17T04:11:15.764Z,97802.28
2022-08-17T04:12:20.111Z,97803.22
2022-08-17T04:13:24.100Z,97805.25
2022-08-17T04:14:27.070Z,97809.34
2022-08-17T04:15:29.391Z,97805.81
2022-08-17T04:16:31.751Z,97812.50
2022-08-17T04:17:33.519Z,97817.03
2022-08-17T04:18:34.975Z,97820.50
2022-08-17T04:19:36.650Z,97823.69
2022-08-17T04:20:38.173Z,97824.91
2022-08-17T04:21:39.945Z,97829.78
2022-08-17T04:23:02.643Z,97829.22
2022-08-17T04:24:05.837Z,97830.22
2022-08-17T04:25:07.243Z,97829.28
2022-08-17T04:26:08.780Z,97831.69
2022-08-17T04:27:10.334Z,97831.63
2022-08-17T04:28:16.108Z,97839.91
2022-08-17T04:29:18.485Z,97832.50
2022-08-17T04:30:20.141Z,97838.56
2022-08-17T04:31:21.731Z,97832.50
2022-08-17T04:32:58.519Z,97830.13
2022-08-17T04:33:44.902Z,97834.13
2022-08-17T04:34:46.320Z,97838.22
2022-08-17T04:35:50.602Z,97839.75
2022-08-17T04:36:52.833Z,97844.34
2022-08-17T04:37:55.162Z,97837.09
2022-08-17T04:38:58.322Z,97842.72
2022-08-17T04:40:18.156Z,97843.00
2022-08-17T04:41:38.312Z,97838.66
2022-08-17T04:42:44.825Z,97839.84
2022-08-17T04:43:48.487Z,97841.50
2022-08-17T04:44:49.918Z,97836.19
2022-08-17T04:45:57.241Z,97839.19
2022-08-17T04:46:58.794Z,97830.66
2022-08-17T04:48:00.827Z,97839.34
2022-08-17T04:49:08.050Z,97834.63
2022-08-17T04:50:09.792Z,97839.34
2022-08-17T04:51:17.409Z,97833.13
2022-08-17T04:52:42.628Z,97835.09
2022-08-17T04:53:43.480Z,97833.38
2022-08-17T04:54:44.916Z,97837.22
2022-08-17T04:55:46.352Z,97835.28
2022-08-17T04:56:48.288Z,97836.03
2022-08-17T04:57:49.822Z,97843.94
2022-08-17T04:58:55.041Z,97848.41
2022-08-17T04:59:56.477Z,97846.06
2022-08-17T05:00:58.035Z,97850.16
2022-08-17T05:01:59.561Z,97847.31
2022-08-17T05:03:01.395Z,97852.09
2022-08-17T05:04:33.006Z,97856.00
2022-08-17T05:05:37.542Z,97856.47
2022-08-17T05:06:38.986Z,97850.03
2022-08-17T05:07:40.435Z,97849.75
2022-08-17T05:08:42.369Z,97848.78
2022-08-17T05:09:43.891Z,97848.13
2022-08-17T05:10:45.793Z,97853.38
2022-08-17T05:11:47.603Z,97853.38
2022-08-17T05:13:00.647Z,97852.56
2022-08-17T05:14:03.660Z,97853.84
2022-08-17T05:15:05.596Z,97860.16
2022-08-17T05:16:09.151Z,97859.41
2022-08-17T05:17:11.109Z,97862.09
2022-08-17T05:18:13.005Z,97866.59
2022-08-17T05:19:14.795Z,97863.19
2022-08-17T05:20:16.487Z,97863.84
2022-08-17T05:21:19.182Z,97861.91
2022-08-17T05:22:20.623Z,97861.84
2022-08-17T05:23:24.690Z,97865.19
2022-08-17T05:24:40.785Z,97872.69
2022-08-17T05:25:51.411Z,97866.56
2022-08-17T05:26:53.160Z,97866.75
2022-08-17T05:27:57.456Z,97866.53
2022-08-17T05:29:00.496Z,97861.84
2022-08-17T05:30:04.374Z,97859.94
2022-08-17T05:31:05.977Z,97863.78
2022-08-17T05:32:38.289Z,97867.94
2022-08-17T05:33:42.626Z,97871.97
2022-08-17T05:34:45.828Z,97871.91
2022-08-17T05:35:49.660Z,97868.81
2022-08-17T05:36:51.116Z,97876.38
2022-08-17T05:37:53.403Z,97871.41
2022-08-17T05:38:59.043Z,97878.22
2022-08-17T05:40:00.589Z,97869.47
2022-08-17T05:41:04.187Z,97875.63
2022-08-17T05:42:06.254Z,97873.72
2022-08-17T05:43:19.927Z,97871.41
2022-08-17T05:44:21.694Z,97873.16
2022-08-17T05:45:32.147Z,97865.47
2022-08-17T05:46:50.159Z,97862.56
2022-08-17T05:47:51.702Z,97856.34
2022-08-17T05:49:04.645Z,97861.00
2022-08-17T05:50:09.875Z,97859.47
2022-08-17T05:51:48.453Z,97861.66
2022-08-17T05:53:22.725Z,97859.47
2022-08-17T05:54:31.753Z,97858.06
2022-08-17T05:55:50.869Z,97865.31
2022-08-17T05:57:20.838Z,97863.41
2022-08-17T05:58:22.790Z,97864.47
2022-08-17T05:59:30.212Z,97856.78
2022-08-17T06:00:36.390Z,97860.88
2022-08-17T06:01:55.605Z,97855.44
2022-08-17T06:03:08.917Z,97860.28
2022-08-17T06:04:10.651Z,97858.59
2022-08-17T06:05:27.217Z,97861.50
2022-08-17T06:06:41.428Z,97863.25
2022-08-17T06:07:59.255Z,97858.53
2022-08-17T06:09:15.218Z,97862.22
2022-08-17T06:10:33.627Z,97857.84
2022-08-17T06:12:04.649Z,97857.22
2022-08-17T06:13:29.379Z,97856.63
2022-08-17T06:14:51.936Z,97847.88
2022-08-17T06:16:01.885Z,97852.69
2022-08-17T06:17:08.492Z,97856.03
2022-08-17T06:18:14.823Z,97850.50
2022-08-17T06:19:47.421Z,97851.50
2022-08-17T06:20:56.869Z,97848.75
2022-08-17T06:22:00.259Z,97848.97
2022-08-17T06:23:10.662Z,97854.22
2022-08-17T06:24:24.967Z,97849.84
2022-08-17T06:25:33.981Z,97847.03
2022-08-17T06:26:43.407Z,97847.16
2022-08-17T06:27:53.522Z,97850.03
2022-08-17T06:29:02.910Z,97854.88
2022-08-17T06:30:20.331Z,97852.41
2022-08-17T06:31:33.431Z,97859.81
2022-08-17T06:32:41.923Z,97867.94
2022-08-17T06:33:47.487Z,97862.41
2022-08-17T06:34:49.512Z,97867.81
2022-08-17T06:36:03.001Z,97867.19
2022-08-17T06:37:34.184Z,97866.47
2022-08-17T06:39:06.706Z,97866.56
2022-08-17T06:40:57.674Z,97863.25
2022-08-17T06:42:58.809Z,97867.31
2022-08-17T06:43:50.343Z,97863.34
2022-08-17T06:45:06.264Z,97871.13
2022-08-17T06:46:41.126Z,97865.66
2022-08-17T06:47:49.016Z,97863.41
2022-08-17T06:49:13.801Z,97860.28
2022-08-17T06:50:38.245Z,97862.69
2022-08-17T06:51:58.484Z,97866.84
2022-08-17T06:53:40.640Z,97863.03
2022-08-17T06:54:50.800Z,97863.03
2022-08-17T06:55:57.050Z,97868.16
2022-08-17T06:57:15.400Z,97871.66
2022-08-17T06:58:22.270Z,97869.31
2022-08-17T06:59:54.676Z,97867.16
2022-08-17T07:01:06.915Z,97869.44
2022-08-17T07:02:15.376Z,97867.53
2022-08-17T07:03:25.276Z,97872.97
2022-08-17T07:04:31.382Z,97875.22
2022-08-17T07:05:38.818Z,97869.47
2022-08-17T07:06:49.235Z,97876.22
2022-08-17T07:08:12.889Z,97874.63
2022-08-17T07:09:35.944Z,97875.97
2022-08-17T07:10:46.466Z,97871.81
2022-08-17T07:12:02.055Z,97871.41
2022-08-17T07:13:23.402Z,97877.38
2022-08-17T07:14:37.030Z,97880.84
2022-08-17T07:15:43.262Z,97885.97
2022-08-17T07:16:48.871Z,97890.00
2022-08-17T07:17:50.643Z,97892.69
2022-08-17T07:18:53.596Z,97888.81
2022-08-17T07:20:04.464Z,97889.28
2022-08-17T07:21:17.493Z,97887.75
2022-08-17T07:22:30.371Z,97893.88
2022-08-17T07:24:03.275Z,97891.16
2022-08-17T07:25:09.142Z,97897.78
2022-08-17T07:26:13.521Z,97900.91
2022-08-17T07:27:23.958Z,97899.84
2022-08-17T07:28:35.234Z,97894.16
2022-08-17T07:29:45.058Z,97895.38
2022-08-17T07:30:51.140Z,97897.34
2022-08-17T07:31:54.381Z,97896.75
2022-08-17T07:33:00.805Z,97912.44
2022-08-17T07:34:07.902Z,97909.72
2022-08-17T07:35:44.016Z,97911.34
2022-08-17T07:36:46.087Z,97905.19
2022-08-17T07:37:57.973Z,97911.56
2022-08-17T07:39:01.190Z,97907.50
2022-08-17T07:40:22.465Z,97910.81
2022-08-17T07:41:24.551Z,97906.16
2022-08-17T07:42:26.028Z,97902.97
2022-08-17T07:43:31.864Z,97897.38
2022-08-17T07:44:54.171Z,97899.72
2022-08-17T07:46:19.499Z,97901.19
2022-08-17T07:47:41.454Z,97897.88
2022-08-17T07:48:49.608Z,97899.94
2022-08-17T07:49:51.123Z,97894.75
2022-08-17T07:50:53.651Z,97891.56
2022-08-17T07:52:00.014Z,97890.91
2022-08-17T07:53:25.673Z,97895.09
2022-08-17T07:54:37.917Z,97895.50
2022-08-17T07:55:41.738Z,97892.59
2022-08-17T07:56:48.115Z,97897.09
2022-08-17T07:57:57.321Z,97898.31
2022-08-17T07:59:23.659Z,97898.41
2022-08-17T08:00:32.370Z,97897.94
2022-08-17T08:01:39.452Z,97899.03
2022-08-17T08:02:47.567Z,97900.63
2022-08-17T08:03:52.556Z,97895.13
2022-08-17T08:05:03.363Z,97906.50
2022-08-17T08:06:20.725Z,97904.53
2022-08-17T08:07:22.393Z,97902.50
2022-08-17T08:08:42.176Z,97902.59
2022-08-17T08:10:04.477Z,97903.84
2022-08-17T08:11:10.409Z,97907.56
2022-08-17T08:12:33.439Z,97908.84
2022-08-17T08:13:42.528Z,97905.00
2022-08-17T08:14:51.671Z,97905.53
2022-08-17T08:15:56.184Z,97909.53
2022-08-17T08:17:05.115Z,97904.44
2022-08-17T08:18:38.693Z,97908.06
2022-08-17T08:19:45.577Z,97900.66
2022-08-17T08:21:04.888Z,97898.13
2022-08-17T08:22:18.861Z,97901.72
2022-08-17T08:23:26.348Z,97902.25
2022-08-17T08:24:40.161Z,97910.19
2022-08-17T08:26:05.104Z,97910.72
2022-08-17T08:27:22.932Z,97907.22
2022-08-17T08:28:44.929Z,97912.56
2022-08-17T08:29:56.352Z,97917.34
2022-08-17T08:31:12.840Z,97904.34
2022-08-17T08:32:39.791Z,97900.22
2022-08-17T08:34:09.076Z,97900.06
2022-08-17T08:35:40.359Z,97888.66
2022-08-17T08:37:17.816Z,97902.59
2022-08-17T08:38:39.675Z,97901.50
2022-08-17T08:39:58.578Z,97896.66
2022-08-17T08:41:12.793Z,97890.56
2022-08-17T08:42:42.316Z,97897.03
2022-08-17T08:44:18.916Z,97890.09
2022-08-17T08:45:44.763Z,97891.59
2022-08-17T08:47:12.143Z,97892.22
2022-08-17T08:48:57.867Z,97893.47
2022-08-17T08:50:30.233Z,97890.03
2022-08-17T08:51:55.984Z,97885.78
2022-08-17T08:52:57.662Z,97889.78
2022-08-17T08:54:11.188Z,97895.66
2022-08-17T08:55:17.954Z,97896.94
2022-08-17T08:56:31.597Z,97892.97
2022-08-17T08:57:40.777Z,97891.84
2022-08-17T08:58:57.360Z,97895.97
2022-08-17T09:00:21.773Z,97890.72
2022-08-17T09:02:13.996Z,97893.59
2022-08-17T09:03:51.262Z,97888.47
2022-08-17T09:05:12.729Z,97885.50
2022-08-17T09:06:37.313Z,97886.53
2022-08-17T09:07:47.012Z,97886.56
2022-08-17T09:09:18.107Z,97889.28
2022-08-17T09:10:25.516Z,97888.25
2022-08-17T09:12:02.378Z,97881.03
2022-08-17T09:13:24.018Z,97878.81
2022-08-17T09:14:32.712Z,97889.13
2022-08-17T09:15:52.323Z,97878.97
2022-08-17T09:17:04.552Z,97879.19
2022-08-17T09:19:02.231Z,97881.72
2022-08-17T09:19:56.994Z,97886.13
2022-08-17T09:21:18.286Z,97887.63
2022-08-17T09:22:33.367Z,97883.16
2022-08-17T09:23:45.101Z,97878.75
2022-08-17T09:24:57.342Z,97886.38
2022-08-17T09:26:06.154Z,97878.41
2022-08-17T09:27:21.783Z,97872.66
2022-08-17T09:28:31.004Z,97871.88
2022-08-17T09:29:37.900Z,97869.88
2022-08-17T09:30:54.330Z,97864.53
2022-08-17T09:31:58.363Z,97868.97
2022-08-17T09:33:07.256Z,97868.91
2022-08-17T09:34:14.404Z,97865.66
2022-08-17T09:35:25.187Z,97876.25
2022-08-17T09:36:49.694Z,97873.78
2022-08-17T09:37:52.209Z,97864.66
2022-08-17T09:39:00.042Z,97872.06
2022-08-17T09:40:16.683Z,97871.63
2022-08-17T09:41:33.405Z,97871.69
2022-08-17T09:42:54.339Z,97866.31
2022-08-17T09:44:22.935Z,97871.94
2022-08-17T09:45:31.361Z,97871.00
2022-08-17T09:46:45.748Z,97868.56
2022-08-17T09:47:56.583Z,97871.00
2022-08-17T09:49:25.267Z,97873.28
2022-08-17T09:51:05.707Z,97870.84
2022-08-17T09:52:16.516Z,97872.59
2022-08-17T09:53:19.722Z,97860.72
2022-08-17T09:54:39.178Z,97863.13
2022-08-17T09:56:08.935Z,97870.50
2022-08-17T09:57:49.265Z,97864.59
2022-08-17T09:59:42.400Z,97865.88
2022-08-17T10:00:55.740Z,97875.03
2022-08-17T10:02:26.947Z,97876.72
2022-08-17T10:03:58.287Z,97872.06
2022-08-17T10:05:10.657Z,97866.59
2022-08-17T10:06:47.739Z,97865.41
2022-08-17T10:08:23.980Z,97871.84
2022-08-17T10:09:43.748Z,97865.91
2022-08-17T10:10:52.431Z,97862.19
2022-08-17T10:12:20.178Z,97865.88
2022-08-17T10:14:17.481Z,97864.94
2022-08-17T10:15:43.357Z,97859.03
2022-08-17T10:17:03.046Z,97844.25
2022-08-17T10:18:34.452Z,97852.88
2022-08-17T10:19:45.442Z,97846.25
2022-08-17T10:21:19.707Z,97844.56
2022-08-17T10:22:53.074Z,97841.38
2022-08-17T10:25:21.386Z,97842.16
2022-08-17T10:26:17.303Z,97847.16
2022-08-17T10:27:21.630Z,97851.13
2022-08-17T10:28:29.753Z,97851.88
2022-08-17T10:29:48.649Z,97843.22
2022-08-17T10:31:05.473Z,97838.78
2022-08-17T10:32:32.864Z,97830.63
2022-08-17T10:33:53.371Z,97827.69
2022-08-17T10:34:57.672Z,97835.38
2022-08-17T10:36:18.455Z,97833.38
2022-08-17T10:37:19.862Z,97839.06
2022-08-17T10:38:37.105Z,97842.03
2022-08-17T10:40:03.438Z,97838.56
2022-08-17T10:41:13.842Z,97840.78
2022-08-17T10:42:36.624Z,97836.31
2022-08-17T10:44:28.547Z,97840.03
2022-08-17T10:45:47.007Z,97830.13
2022-08-17T10:47:13.116Z,97833.13
2022-08-17T10:48:14.524Z,97839.78
2022-08-17T10:49:18.963Z,97838.28
2022-08-17T10:50:46.209Z,97836.31
2022-08-17T10:51:54.414Z,97837.34
2022-08-17T10:52:56.011Z,97839.03
2022-08-17T10:53:58.388Z,97829.41
2022-08-17T10:55:06.370Z,97836.09
2022-08-17T10:56:13.917Z,97839.53
2022-08-17T10:57:32.003Z,97842.78
2022-08-17T10:58:55.642Z,97844.50
2022-08-17T10:59:59.018Z,97846.47
2022-08-17T11:01:02.180Z,97854.41
2022-08-17T11:02:26.320Z,97849.19
2022-08-17T11:03:28.045Z,97864.25
2022-08-17T11:04:48.324Z,97857.06
2022-08-17T11:06:05.212Z,97855.81
2022-08-17T11:07:36.848Z,97859.78
2022-08-17T11:09:02.698Z,97862.25
2022-08-17T11:10:21.860Z,97861.50
2022-08-17T11:11:39.106Z,97856.56
2022-08-17T11:13:01.522Z,97853.59
2022-08-17T11:14:18.876Z,97858.84
2022-08-17T11:15:39.543Z,97851.69
2022-08-17T11:16:47.895Z,97845.97
2022-08-17T11:18:10.665Z,97844.75
2022-08-17T11:19:12.061Z,97839.81
2022-08-17T11:20:45.042Z,97839.56
2022-08-17T11:22:01.721Z,97842.03
2022-08-17T11:23:09.815Z,97840.78
2022-08-17T11:24:22.068Z,97848.19
2022-08-17T11:25:36.068Z,97851.19
2022-08-17T11:26:46.174Z,97847.44
2022-08-17T11:27:53.734Z,97855.59
2022-08-17T11:29:10.784Z,97856.34
2022-08-17T11:30:14.981Z,97853.66
2022-08-17T11:31:39.055Z,97851.19
2022-08-17T11:32:47.500Z,97854.88
2022-08-17T11:33:59.141Z,97849.69
2022-08-17T11:35:19.062Z,97842.00
2022-08-17T11:36:54.524Z,97848.19
2022-08-17T11:38:07.758Z,97853.88
2022-08-17T11:39:25.471Z,97841.75
2022-08-17T11:40:46.435Z,97850.16
2022-08-17T11:42:11.760Z,97853.63
2022-08-17T11:43:29.102Z,97852.88
2022-08-17T11:44:51.162Z,97853.34
2022-08-17T11:46:09.664Z,97863.00
2022-08-17T11:47:41.287Z,97864.75
2022-08-17T11:49:21.763Z,97860.53
2022-08-17T11:51:24.247Z,97861.31
2022-08-17T11:52:39.607Z,97854.06
2022-08-17T11:53:41.151Z,97858.78
2022-08-17T11:54:47.559Z,97854.81
2022-08-17T11:55:52.011Z,97861.00
2022-08-17T11:56:53.787Z,97851.38
2022-08-17T11:58:18.678Z,97856.56
2022-08-17T11:59:46.218Z,97852.88
2022-08-17T12:00:49.631Z,97852.63
2022-08-17T12:01:55.589Z,97849.66
2022-08-17T12:03:22.274Z,97847.66
2022-08-17T12:04:32.241Z,97849.16
2022-08-17T12:05:35.334Z,97860.75
2022-08-17T12:06:50.345Z,97850.91
2022-08-17T12:08:15.159Z,97845.44
2022-08-17T12:09:32.792Z,97843.19
2022-08-17T12:10:40.765Z,97849.16
2022-08-17T12:11:56.276Z,97846.44
2022-08-17T12:13:18.037Z,97848.19
2022-08-17T12:14:40.101Z,97852.59
2022-08-17T12:15:53.007Z,97858.03
2022-08-17T12:17:09.969Z,97848.38
2022-08-17T12:18:28.120Z,97848.09
2022-08-17T12:19:30.366Z,97845.38
2022-08-17T12:20:42.373Z,97838.94
2022-08-17T12:21:54.998Z,97838.94
2022-08-17T12:23:25.606Z,97841.91
2022-08-17T12:24:39.410Z,97837.69
2022-08-17T12:25:44.145Z,97827.78
2022-08-17T12:26:56.653Z,97836.34
2022-08-17T12:28:06.367Z,97836.56
2022-08-17T12:29:18.448Z,97822.66
2022-08-17T12:30:38.192Z,97825.56
2022-08-17T12:31:51.330Z,97827.28
2022-08-17T12:32:53.823Z,97822.84
2022-08-17T12:33:56.266Z,97827.13
2022-08-17T12:34:58.303Z,97836.56
2022-08-17T12:36:06.793Z,97838.31
2022-08-17T12:37:15.863Z,97833.16
2022-08-17T12:38:32.681Z,97836.13
2022-08-17T12:39:35.126Z,97843.56
2022-08-17T12:40:37.910Z,97838.88
2022-08-17T12:41:43.410Z,97836.38
2022-08-17T12:42:58.789Z,97836.34
2022-08-17T12:44:15.508Z,97837.31
2022-08-17T12:45:29.997Z,97832.34
2022-08-17T12:46:47.370Z,97830.56
2022-08-17T12:47:49.311Z,97827.25
2022-08-17T12:48:58.962Z,97822.50
2022-08-17T12:50:29.087Z,97822.94
2022-08-17T12:51:31.804Z,97829.03
2022-08-17T12:52:33.625Z,97820.59
2022-08-17T12:53:35.850Z,97820.53
2022-08-17T12:54:45.333Z,97823.22
2022-08-17T12:55:49.086Z,97823.34
2022-08-17T12:56:51.302Z,97823.59
2022-08-17T12:57:58.459Z,97818.34
2022-08-17T12:59:02.487Z,97819.53
2022-08-17T13:00:25.629Z,97820.50
2022-08-17T13:01:27.285Z,97822.31
2022-08-17T13:02:51.642Z,97829.59
2022-08-17T13:03:57.203Z,97833.69
2022-08-17T13:05:00.945Z,97828.75
2022-08-17T13:06:08.905Z,97823.91
2022-08-17T13:07:11.097Z,97825.94
2022-08-17T13:08:20.790Z,97829.28
2022-08-17T13:09:35.235Z,97819.69
2022-08-17T13:10:38.050Z,97824.66
2022-08-17T13:11:55.622Z,97831.09
2022-08-17T13:12:58.389Z,97825.16
2022-08-17T13:14:09.302Z,97831.91
2022-08-17T13:15:44.881Z,97837.88
2022-08-17T13:16:53.442Z,97825.25
2022-08-17T13:18:08.462Z,97825.03
2022-08-17T13:19:15.241Z,97826.56
2022-08-17T13:20:16.737Z,97826.31
2022-08-17T13:21:26.694Z,97830.31
2022-08-17T13:22:30.189Z,97822.19
2022-08-17T13:23:33.040Z,97830.09
2022-08-17T13:24:38.513Z,97827.91
2022-08-17T13:25:40.327Z,97823.19
2022-08-17T13:26:46.407Z,97828.16
2022-08-17T13:27:52.613Z,97822.97
2022-08-17T13:28:54.503Z,97821.75
2022-08-17T13:30:02.540Z,97813.09
2022-08-17T13:31:24.185Z,97823.47
2022-08-17T13:32:54.207Z,97823.72
2022-08-17T13:34:12.589Z,97816.31
2022-08-17T13:35:29.501Z,97816.59
2022-08-17T13:36:34.075Z,97823.50
2022-08-17T13:37:37.029Z,97821.53
2022-08-17T13:38:45.678Z,97820.53
2022-08-17T13:39:47.274Z,97821.50
2022-08-17T13:40:53.086Z,97824.72
2022-08-17T13:41:56.120Z,97821.03
2022-08-17T13:42:58.747Z,97821.28
2022-08-17T13:44:00.442Z,97818.81
2022-08-17T13:45:01.937Z,97823.72
2022-08-17T13:46:31.113Z,97824.47
2022-08-17T13:47:33.243Z,97824.22
2022-08-17T13:48:35.234Z,97821.25
2022-08-17T13:49:41.953Z,97817.06
2022-08-17T13:50:55.663Z,97814.56
2022-08-17T13:51:57.343Z,97814.06